Wesley, IA (50483)

9:21 PM CDT on March 29, 2017 (GMT -0500)
Erin Township Trading Post | | Change Station

Elev 1228 ft 43.04 °N, 93.85 °W | Updated 12 minutes ago

Rain
Rain
37.7 °F
Feels Like 26 °F
N
27.0
Wind Variable Wind from NE
Gusts 37.0 mph

Today
High -- | Low -- °F
--% Chance of Precip.
Yesterday
High -- | Low -- °F
Precip. -- in
Pressure 29.98 in
Visibility 10.0 miles
Clouds Few 1200 ft
Overcast 4200 ft
Windchill 26 °F
Dew Point 37 °F
Humidity 96%
Rainfall 0.36 in
Snow Depth Not available.
7:02 AM 7:39 PM
Waxing Crescent, 5% visible
METAR KAXA 300215Z AUTO 07018G30KT 10SM FEW012 OVC042 04/04 A2998 RMK AO2
Pressure 29.98 in
Visibility 10.0 miles
Clouds Few 1200 ft
Overcast 4200 ft
Windchill 26 °F
Dew Point 37 °F
Humidity 96%
Rainfall 0.36 in
Snow Depth Not available.
7:02 AM 7:39 PM
Waxing Crescent, 5% visible
METAR KAXA 300215Z AUTO 07018G30KT 10SM FEW012 OVC042 04/04 A2998 RMK AO2

Get Severe Weather Alerts

Thanks for signing up!

Be on the lookout for a verification email in your inbox.

You'll start receiving the daily forecast at 8 AM.

×

10-Day Weather Forecast

Almanac

Astronomy

Mar. 29, 2017 Rise Set
Actual Time
Civil Twilight
Nautical Twilight
Astronomical Twilight
Moon
Length of Visible Light
Length of Day
Tomorrow will be .
, % of the Moon is Illuminated

Today's Extremes

State Highs State Lows

Community

WunderPhotos

Upload Photos

1,962,540 photos uploaded!

WunderBlog® & News

Nearby

Air Quality

  Air Quality AQ Index Pollutant
Not available.

Snow Depth

Station Depth Elevation

Earthquake Activity

City Distance Mag. Time & Date
Minimum magnitude displayed is 2.5.

Earthquake Activity

City Distance Mag. Time & Date
Minimum magnitude displayed is 2.5.

Coastal Water Temperatures

Place Temperature

Stations

Nearby Weather Stations

Station Location Temp. Windchill Dew Point Humidity Wind Precip. Elev Updated Type
                   

Watches & Warnings

There are currently no watches in effect.